Time;durP1;ratioP1;P1;durP2;ratioP2;P2;SDS_P1;SDS_P2;PMS_P1;PMS_P2;Temp;Humidity;BMP_temperature;BMP_pressure;BME280_temperature;BME280_humidity;BME280_pressure;Samples;Min_cycle;Max_cycle;Signal;HPM_P1;HPM_P2
2023/09/18 00:00:51;;;;;;;;;1.00;1.00;;;;;22.77;50.69;99704.72;5077640;28;45409;-78
2023/09/18 00:03:24;;;;;;;;;0.00;0.00;;;;;22.83;50.91;99724.94;5077151;28;46237;-78
2023/09/18 00:05:50;;;;;;;;;1.00;0.00;;;;;22.90;50.63;99741.56;5077262;28;45253;-77
2023/09/18 00:08:17;;;;;;;;;0.67;0.67;;;;;22.86;51.14;99745.25;5093034;27;45251;-77
2023/09/18 00:10:48;;;;;;;;;1.00;1.00;;;;;22.78;50.95;99735.75;5077268;28;45537;-77
2023/09/18 00:13:13;;;;;;;;;2.00;1.00;;;;;22.62;51.10;99707.88;5092527;27;46241;-77
2023/09/18 00:15:40;;;;;;;;;0.00;0.00;;;;;22.63;50.26;99715.81;5058961;28;45445;-77
2023/09/18 00:18:07;;;;;;;;;1.00;1.00;;;;;22.79;49.83;99715.31;5077529;28;45413;-81
2023/09/18 00:20:33;;;;;;;;;0.00;0.00;;;;;22.74;49.91;99707.50;5059027;28;45552;-77
2023/09/18 00:22:58;;;;;;;;;1.00;1.00;;;;;22.74;49.72;99702.16;5079943;28;45212;-81
2023/09/18 00:25:24;;;;;;;;;0.00;0.00;;;;;22.75;49.78;99703.91;5080408;28;45515;-78
2023/09/18 00:27:51;;;;;;;;;1.00;0.00;;;;;22.73;50.27;99694.22;5080905;28;45358;-78
2023/09/18 00:30:17;;;;;;;;;1.00;1.00;;;;;22.66;50.21;99692.69;5080914;28;45521;-78
2023/09/18 00:32:43;;;;;;;;;1.00;1.00;;;;;22.69;50.15;99711.22;5095652;27;45601;-77
2023/09/18 00:35:09;;;;;;;;;1.00;1.00;;;;;22.65;49.91;99705.13;5062326;28;45492;-77
2023/09/18 00:37:36;;;;;;;;;2.00;1.00;;;;;22.67;50.32;99705.94;5062262;28;45410;-78
2023/09/18 00:40:02;;;;;;;;;1.67;1.67;;;;;22.57;50.28;99705.38;5062626;28;45411;-77
2023/09/18 00:42:27;;;;;;;;;1.00;1.00;;;;;22.67;50.36;99727.25;5080207;28;45876;-77
2023/09/18 00:44:53;;;;;;;;;1.00;1.00;;;;;22.59;50.94;99716.84;5080372;28;45219;-78
2023/09/18 00:47:19;;;;;;;;;0.00;0.00;;;;;22.64;51.42;99740.63;5080493;28;45445;-78
2023/09/18 00:49:48;;;;;;;;;0.50;0.50;;;;;22.60;51.61;99744.31;5062385;28;45564;-77
2023/09/18 00:52:15;;;;;;;;;0.67;0.33;;;;;22.57;51.01;99747.09;5079810;28;46117;-77
2023/09/18 00:54:42;;;;;;;;;2.00;1.00;;;;;22.52;51.30;99743.72;5080463;28;45461;-77
2023/09/18 00:57:10;;;;;;;;;1.00;1.00;;;;;22.38;50.92;99723.75;5080698;28;45462;-78
2023/09/18 00:59:36;;;;;;;;;1.00;1.00;;;;;22.55;51.17;99748.94;5080543;28;45441;-77
2023/09/18 01:02:03;;;;;;;;;1.00;1.00;;;;;22.54;50.82;99749.84;5079925;28;45636;-77
2023/09/18 01:04:32;;;;;;;;;1.00;0.33;;;;;22.51;51.30;99744.66;5095608;27;45520;-77
2023/09/18 01:07:01;;;;;;;;;1.00;0.33;;;;;22.57;50.70;99747.09;5095814;27;45543;-77
2023/09/18 01:09:26;;;;;;;;;1.00;1.00;;;;;22.48;51.21;99734.09;5080244;28;45212;-77
2023/09/18 01:12:05;;;;;;;;;0.00;0.00;;;;;22.48;50.37;99744.72;5061504;28;45549;-78
2023/09/18 01:14:38;;;;;;;;;1.00;1.00;;;;;22.57;50.38;99750.63;5079923;28;45354;-77
2023/09/18 01:17:06;;;;;;;;;1.00;1.00;;;;;22.55;50.13;99748.94;5061594;28;45314;-77
2023/09/18 01:19:45;;;;;;;;;1.00;1.00;;;;;22.49;49.89;99727.84;5095774;27;45550;-77
2023/09/18 01:22:12;;;;;;;;;1.00;1.00;;;;;22.60;50.18;99754.97;5079742;28;45986;-77
2023/09/18 01:24:39;;;;;;;;;1.00;1.00;;;;;22.45;50.32;99732.41;5079504;28;45333;-77
2023/09/18 01:27:08;;;;;;;;;0.67;0.67;;;;;22.57;49.85;99752.44;5095350;27;45253;-78
2023/09/18 01:29:34;;;;;;;;;0.00;0.00;;;;;22.52;49.98;99749.94;5079919;28;45490;-77
2023/09/18 01:31:59;;;;;;;;;1.00;1.00;;;;;22.51;50.43;99740.19;5061067;28;46887;-77
2023/09/18 01:34:31;;;;;;;;;0.67;0.67;;;;;22.56;50.26;99748.00;5094354;27;45462;-77
2023/09/18 01:36:58;;;;;;;;;1.00;1.00;;;;;22.41;49.79;99731.63;5079681;28;45299;-77
2023/09/18 01:39:30;;;;;;;;;1.00;1.00;;;;;22.45;50.56;99743.03;5079622;28;45220;-77
2023/09/18 01:41:56;;;;;;;;;1.00;1.00;;;;;22.28;50.56;99710.75;5079255;28;46527;-80
2023/09/18 01:44:22;;;;;;;;;1.00;1.00;;;;;22.49;50.36;99752.66;5061261;28;45367;-81
2023/09/18 01:46:51;;;;;;;;;1.00;1.00;;;;;22.40;50.78;99742.31;5079351;28;45473;-77
2023/09/18 01:49:26;;;;;;;;;1.67;1.00;;;;;22.44;50.77;99758.16;5095371;27;45526;-78
2023/09/18 01:51:52;;;;;;;;;1.00;1.00;;;;;22.40;50.90;99751.19;5061469;28;47246;-77
2023/09/18 01:54:17;;;;;;;;;1.00;1.00;;;;;22.20;50.53;99722.50;5079082;28;45716;-78
2023/09/18 01:56:43;;;;;;;;;0.00;0.00;;;;;22.38;50.87;99758.34;5079737;28;45398;-77
2023/09/18 01:59:09;;;;;;;;;1.00;0.67;;;;;22.39;50.78;99756.53;5079122;28;45651;-77
2023/09/18 02:01:37;;;;;;;;;1.00;1.00;;;;;22.41;50.21;99765.34;5078947;28;45484;-77
2023/09/18 02:04:04;;;;;;;;;0.00;0.00;;;;;22.21;50.82;99726.88;5079189;28;45394;-77
2023/09/18 02:06:29;;;;;;;;;2.00;1.00;;;;;22.43;50.65;99763.50;5079210;28;45456;-77
2023/09/18 02:08:55;;;;;;;;;1.00;1.00;;;;;22.21;50.01;99718.91;5079284;28;45411;-78
2023/09/18 02:11:21;;;;;;;;;1.67;1.00;;;;;22.41;50.63;99758.22;5078934;28;46116;-78
2023/09/18 02:13:46;;;;;;;;;2.00;0.00;;;;;22.46;50.48;99765.19;5060624;28;45518;-77
2023/09/18 02:16:12;;;;;;;;;1.00;1.00;;;;;22.43;50.65;99764.38;5079333;28;45357;-77
2023/09/18 02:18:38;;;;;;;;;0.00;0.00;;;;;22.27;50.62;99752.47;5079181;28;45320;-77
2023/09/18 02:21:03;;;;;;;;;1.00;1.00;;;;;22.04;50.23;99708.81;5078925;28;45319;-77
2023/09/18 02:23:29;;;;;;;;;1.00;0.33;;;;;22.33;51.11;99754.06;5060594;28;45394;-77
2023/09/18 02:25:58;;;;;;;;;1.33;1.00;;;;;22.29;53.04;99761.28;5078566;28;45557;-77
2023/09/18 02:28:25;;;;;;;;;2.00;1.67;;;;;22.14;53.73;99765.22;5079073;28;45173;-80
2023/09/18 02:30:51;;;;;;;;;3.00;1.67;;;;;21.90;54.93;99748.22;5060306;28;46373;-74
2023/09/18 02:33:17;;;;;;;;;2.00;1.00;;;;;21.88;54.54;99757.16;5079047;28;45355;-74
2023/09/18 02:35:43;;;;;;;;;1.00;1.00;;;;;21.74;54.60;99757.56;5094759;27;45561;-78
2023/09/18 02:38:09;;;;;;;;;1.00;0.00;;;;;21.79;54.98;99775.13;5078970;28;46127;-75
2023/09/18 02:40:35;;;;;;;;;1.00;1.00;;;;;21.75;54.43;99767.28;5076962;28;46978;-75
2023/09/18 02:43:02;;;;;;;;;1.00;1.00;;;;;21.65;54.52;99751.59;5078298;28;45515;-75
2023/09/18 02:45:27;;;;;;;;;0.00;0.00;;;;;21.72;53.82;99762.03;5077645;28;45504;-75
2023/09/18 02:47:53;;;;;;;;;0.00;0.00;;;;;21.73;54.19;99769.97;5078498;28;45484;-78
2023/09/18 02:50:19;;;;;;;;;2.00;1.00;;;;;21.65;53.24;99742.75;5060032;28;45497;-75
2023/09/18 02:52:44;;;;;;;;;1.00;1.00;;;;;21.59;53.92;99743.78;5078550;28;45476;-74
2023/09/18 02:55:10;;;;;;;;;1.00;0.67;;;;;21.61;53.58;99744.63;5078394;28;45296;-75
2023/09/18 02:57:36;;;;;;;;;2.00;1.00;;;;;21.69;53.83;99751.50;5078726;28;45153;-76
2023/09/18 03:00:03;;;;;;;;;0.00;0.00;;;;;21.63;53.46;99753.41;5078225;28;46655;-74
2023/09/18 03:02:28;;;;;;;;;0.00;0.00;;;;;21.65;53.50;99758.69;5078100;28;45460;-74
2023/09/18 03:04:54;;;;;;;;;1.00;0.33;;;;;21.68;52.87;99760.38;5078064;28;45385;-74
2023/09/18 03:07:20;;;;;;;;;1.00;1.00;;;;;21.50;53.50;99736.06;5093661;27;45469;-75
2023/09/18 03:09:45;;;;;;;;;1.00;1.00;;;;;21.57;53.25;99748.28;5077813;28;45354;-75
2023/09/18 03:12:11;;;;;;;;;1.00;1.00;;;;;21.57;53.19;99750.06;5059807;28;45576;-77
2023/09/18 03:14:36;;;;;;;;;1.33;1.00;;;;;21.70;53.31;99769.19;5078167;28;45532;-74
2023/09/18 03:17:02;;;;;;;;;0.00;0.00;;;;;21.68;52.86;99755.06;5078232;28;45403;-75
2023/09/18 03:19:28;;;;;;;;;1.00;1.00;;;;;21.61;53.09;99733.97;5059325;28;46607;-74
2023/09/18 03:21:53;;;;;;;;;1.00;1.00;;;;;21.65;52.35;99735.63;5077753;28;45324;-74
2023/09/18 03:24:19;;;;;;;;;0.00;0.00;;;;;21.59;52.15;99719.88;5078316;28;45317;-74
2023/09/18 03:26:45;;;;;;;;;1.00;1.00;;;;;21.85;52.23;99758.13;5078197;28;45514;-74
2023/09/18 03:29:10;;;;;;;;;1.00;1.00;;;;;21.72;51.96;99724.81;5059590;28;47754;-74
2023/09/18 03:31:36;;;;;;;;;1.00;1.00;;;;;21.69;52.56;99716.97;5077942;28;45549;-74
2023/09/18 03:34:02;;;;;;;;;1.00;0.67;;;;;21.91;52.45;99755.28;5077887;28;45314;-74
2023/09/18 03:36:27;;;;;;;;;2.67;1.33;;;;;21.90;52.44;99761.50;5078080;28;45308;-74
2023/09/18 03:38:53;;;;;;;;;1.00;1.00;;;;;21.93;52.90;99758.78;5059214;28;45617;-75
2023/09/18 03:41:18;;;;;;;;;1.00;1.00;;;;;21.98;52.18;99763.94;5059760;28;45553;-74
2023/09/18 03:43:44;;;;;;;;;0.33;0.33;;;;;21.88;52.32;99746.53;5059359;28;45557;-74
2023/09/18 03:46:10;;;;;;;;;0.00;0.00;;;;;21.82;52.37;99742.25;5077753;28;45450;-74
2023/09/18 03:48:38;;;;;;;;;1.00;1.00;;;;;21.94;52.13;99755.19;5092993;27;45534;-74
2023/09/18 03:51:05;;;;;;;;;1.00;1.00;;;;;21.93;51.71;99752.59;5093061;27;45473;-78
2023/09/18 03:53:34;;;;;;;;;1.00;1.00;;;;;21.85;51.87;99736.84;5077225;28;45423;-76
2023/09/18 03:56:00;;;;;;;;;0.33;0.33;;;;;21.85;51.96;99713.78;5077384;28;45346;-78
2023/09/18 03:58:26;;;;;;;;;0.00;0.00;;;;;21.90;52.04;99734.06;5093036;27;47601;-74
2023/09/18 04:00:52;;;;;;;;;1.67;1.67;;;;;21.88;51.63;99728.78;5059362;28;45529;-74
2023/09/18 04:03:18;;;;;;;;;1.00;1.00;;;;;21.91;51.97;99742.00;5077761;28;45362;-77
2023/09/18 04:05:44;;;;;;;;;0.33;0.33;;;;;21.69;51.46;99719.63;5077544;28;45227;-77
2023/09/18 04:08:11;;;;;;;;;1.00;1.00;;;;;21.81;51.45;99735.22;5076749;28;46046;-78
2023/09/18 04:10:37;;;;;;;;;1.00;1.00;;;;;21.69;52.37;99724.94;5076994;28;45438;-77
2023/09/18 04:13:03;;;;;;;;;1.00;1.00;;;;;21.79;52.25;99731.72;5092910;27;45490;-77
2023/09/18 04:15:30;;;;;;;;;0.00;0.00;;;;;21.80;51.99;99734.31;5077579;28;45390;-77
2023/09/18 04:17:56;;;;;;;;;0.67;0.67;;;;;21.73;52.33;99727.44;5058832;28;46482;-77
2023/09/18 04:20:25;;;;;;;;;1.00;1.00;;;;;21.81;51.90;99746.69;5077388;28;45253;-79
2023/09/18 04:23:18;;;;;;;;;1.00;0.00;;;;;21.82;52.54;99750.22;5077338;28;45246;-77
2023/09/18 04:25:43;;;;;;;;;0.00;0.00;;;;;21.77;52.67;99745.06;5077028;28;45631;-78
2023/09/18 04:28:09;;;;;;;;;1.00;1.00;;;;;21.61;52.28;99719.84;5077064;28;46102;-77
2023/09/18 04:30:35;;;;;;;;;1.67;0.00;;;;;21.62;52.14;99716.25;5076937;28;45532;-77
2023/09/18 04:33:01;;;;;;;;;2.33;1.00;;;;;21.62;52.09;99706.47;5076759;28;45406;-77
2023/09/18 04:35:27;;;;;;;;;1.00;1.00;;;;;21.62;51.92;99692.31;5076550;28;45283;-77
2023/09/18 04:37:56;;;;;;;;;2.00;2.00;;;;;21.86;51.22;99722.63;5077033;28;46742;-78
2023/09/18 04:40:23;;;;;;;;;1.00;1.00;;;;;21.82;51.03;99729.81;5077185;28;45446;-77
2023/09/18 04:42:49;;;;;;;;;2.00;1.00;;;;;21.85;51.53;99747.50;5058697;28;45298;-77
2023/09/18 04:45:15;;;;;;;;;1.00;1.00;;;;;21.84;51.88;99743.97;5077156;28;45544;-81
2023/09/18 04:47:41;;;;;;;;;1.33;0.33;;;;;21.83;52.26;99746.66;5076769;28;45178;-77
2023/09/18 04:50:08;;;;;;;;;1.00;1.00;;;;;21.74;51.75;99723.00;5076750;28;45451;-80
2023/09/18 04:52:34;;;;;;;;;1.00;1.00;;;;;21.82;51.62;99740.47;5076687;28;45398;-77
2023/09/18 04:54:59;;;;;;;;;0.00;0.00;;;;;21.73;51.70;99726.59;5076949;28;45376;-78
2023/09/18 04:57:25;;;;;;;;;1.00;0.67;;;;;21.80;52.24;99736.09;5076552;28;45408;-77
2023/09/18 04:59:51;;;;;;;;;2.00;2.00;;;;;21.79;52.31;99732.59;5059015;28;45502;-77
2023/09/18 05:02:16;;;;;;;;;1.00;1.00;;;;;21.74;52.45;99723.84;5076614;28;45388;-77
2023/09/18 05:04:42;;;;;;;;;0.33;0.33;;;;;21.74;52.59;99736.28;5076942;28;45239;-77
2023/09/18 05:07:08;;;;;;;;;2.00;1.33;;;;;21.58;52.07;99718.13;5092162;27;46458;-77
2023/09/18 05:09:34;;;;;;;;;1.67;1.00;;;;;21.65;52.00;99734.78;5079059;28;45426;-78
2023/09/18 05:12:00;;;;;;;;;2.33;1.00;;;;;21.77;51.78;99749.50;5080226;28;45295;-78
2023/09/18 05:14:26;;;;;;;;;2.00;1.00;;;;;21.73;52.14;99740.75;5061997;28;45410;-77
2023/09/18 05:16:52;;;;;;;;;1.67;0.33;;;;;21.69;51.75;99730.25;5061706;28;45465;-77
2023/09/18 05:19:18;;;;;;;;;0.67;0.67;;;;;21.81;51.55;99745.84;5080044;28;45331;-77
2023/09/18 05:21:43;;;;;;;;;0.00;0.00;;;;;21.82;51.98;99752.88;5079652;27;45454;-77
2023/09/18 05:24:09;;;;;;;;;0.00;0.00;;;;;21.76;52.01;99750.41;5080161;28;45391;-77
2023/09/18 05:26:35;;;;;;;;;1.00;1.00;;;;;21.73;51.76;99740.75;5061353;28;46630;-77
2023/09/18 05:29:00;;;;;;;;;0.00;0.00;;;;;21.68;51.90;99729.34;5079596;28;45390;-80
2023/09/18 05:31:26;;;;;;;;;0.00;0.00;;;;;21.85;52.05;99756.34;5095289;27;45447;-77
2023/09/18 05:33:52;;;;;;;;;2.00;2.00;;;;;21.71;51.65;99731.06;5079865;28;45304;-77
2023/09/18 05:36:17;;;;;;;;;3.00;2.67;;;;;21.78;52.24;99745.91;5079470;28;45507;-77
2023/09/18 05:38:43;;;;;;;;;2.00;2.00;;;;;21.68;51.67;99731.16;5079552;28;45391;-77
2023/09/18 05:41:09;;;;;;;;;1.00;1.00;;;;;21.66;51.80;99725.88;5079751;28;45548;-77
2023/09/18 05:43:36;;;;;;;;;1.00;0.67;;;;;21.85;51.10;99761.66;5079682;28;45383;-77
2023/09/18 05:46:02;;;;;;;;;2.00;2.00;;;;;21.89;50.99;99746.50;5077830;27;45687;-77
2023/09/18 05:48:28;;;;;;;;;1.00;1.00;;;;;21.92;50.50;99751.69;5079252;28;45489;-77
2023/09/18 05:50:54;;;;;;;;;0.00;0.00;;;;;21.91;51.06;99747.31;5060998;28;45637;-78
2023/09/18 05:53:20;;;;;;;;;0.67;0.00;;;;;21.79;51.21;99734.38;5079610;28;45288;-77
2023/09/18 05:55:47;;;;;;;;;1.00;1.00;;;;;21.87;52.00;99760.75;5079276;28;45421;-77
2023/09/18 05:58:13;;;;;;;;;0.67;0.67;;;;;21.81;51.65;99756.47;5079074;28;45613;-77
2023/09/18 06:00:39;;;;;;;;;1.00;1.00;;;;;21.85;52.11;99753.69;5061081;28;45382;-77
2023/09/18 06:03:10;;;;;;;;;1.67;1.00;;;;;21.92;51.84;99762.34;5078919;28;45538;-79
2023/09/18 06:05:36;;;;;;;;;0.00;0.00;;;;;21.93;51.52;99750.78;5079205;28;46227;-77
2023/09/18 06:08:02;;;;;;;;;1.33;1.00;;;;;21.92;51.39;99743.72;5078813;28;45491;-78
2023/09/18 06:10:28;;;;;;;;;2.00;1.00;;;;;22.06;51.43;99761.94;5079433;28;45593;-80
2023/09/18 06:12:54;;;;;;;;;2.00;1.33;;;;;21.99;50.97;99747.09;5079202;28;45480;-78
2023/09/18 06:15:19;;;;;;;;;1.67;1.00;;;;;22.08;51.05;99767.22;5094627;27;48146;-77
2023/09/18 06:17:45;;;;;;;;;1.67;1.00;;;;;22.04;51.23;99775.28;5079231;28;45406;-77
2023/09/18 06:20:15;;;;;;;;;2.00;0.67;;;;;22.11;51.23;99773.31;5060437;28;45539;-79
2023/09/18 06:22:41;;;;;;;;;1.00;1.00;;;;;22.15;50.87;99766.97;5060712;28;45613;-79
2023/09/18 06:25:09;;;;;;;;;1.00;1.00;;;;;22.15;50.43;99753.69;5078378;28;45939;-77
2023/09/18 06:27:36;;;;;;;;;1.00;1.00;;;;;22.27;50.49;99772.91;5078262;28;45467;-78
2023/09/18 06:30:03;;;;;;;;;1.00;1.00;;;;;22.28;50.44;99777.28;5078439;28;45185;-77
2023/09/18 06:32:29;;;;;;;;;1.67;1.00;;;;;22.24;50.17;99768.50;5078961;28;45294;-77
2023/09/18 06:34:57;;;;;;;;;2.00;1.67;;;;;22.23;49.93;99758.78;5078365;28;46413;-77
2023/09/18 06:37:23;;;;;;;;;1.00;1.00;;;;;22.19;49.66;99736.72;5094299;27;45329;-77
2023/09/18 06:39:48;;;;;;;;;2.00;1.33;;;;;22.52;49.70;99795.16;5060333;28;45216;-78
2023/09/18 06:42:14;;;;;;;;;1.00;0.00;;;;;22.59;50.08;99803.81;5060371;28;45465;-77
2023/09/18 06:44:40;;;;;;;;;2.00;1.00;;;;;22.60;50.01;99800.22;5078400;28;45483;-78
2023/09/18 06:47:06;;;;;;;;;1.00;1.00;;;;;22.63;49.42;99798.34;5078491;28;45225;-77
2023/09/18 06:49:32;;;;;;;;;1.00;1.00;;;;;22.62;49.63;99782.41;5078531;28;46125;-77
2023/09/18 06:51:58;;;;;;;;;2.00;1.00;;;;;22.70;49.59;99785.72;5060321;28;45385;-77
2023/09/18 06:54:24;;;;;;;;;1.00;1.00;;;;;22.80;49.36;99786.28;5093978;27;47013;-77
2023/09/18 06:56:49;;;;;;;;;1.33;1.33;;;;;22.89;49.26;99798.44;5077841;28;45357;-77
2023/09/18 06:59:15;;;;;;;;;1.00;1.00;;;;;23.06;49.16;99809.44;5078238;28;45490;-77
2023/09/18 07:01:42;;;;;;;;;1.00;1.00;;;;;23.14;48.71;99811.84;5060100;28;45565;-77
2023/09/18 07:04:08;;;;;;;;;1.00;1.00;;;;;23.01;49.07;99776.72;5077744;28;46154;-78
2023/09/18 07:06:34;;;;;;;;;2.00;2.00;;;;;23.22;48.60;99799.16;5078049;28;45500;-75
2023/09/18 07:08:59;;;;;;;;;1.00;1.00;;;;;23.30;48.46;99793.53;5078502;28;45265;-74
2023/09/18 07:11:25;;;;;;;;;1.00;1.00;;;;;23.40;48.05;99797.66;5078226;28;45556;-80
2023/09/18 07:13:51;;;;;;;;;1.00;1.00;;;;;23.45;48.63;99809.00;5077667;28;45245;-78
2023/09/18 07:16:17;;;;;;;;;1.00;1.00;;;;;23.42;47.73;99811.78;5059843;28;45343;-77
2023/09/18 07:18:43;;;;;;;;;1.00;1.00;;;;;23.53;48.24;99838.91;5093470;27;45384;-78
2023/09/18 07:21:09;;;;;;;;;1.00;0.00;;;;;23.42;48.39;99827.78;5077965;28;45432;-78
2023/09/18 07:23:37;;;;;;;;;1.67;1.67;;;;;23.59;48.46;99852.03;5059314;28;47928;-78
2023/09/18 07:26:03;;;;;;;;;1.00;1.00;;;;;23.37;48.64;99817.25;5059851;28;45469;-77
2023/09/18 07:28:28;;;;;;;;;1.00;1.00;;;;;23.51;48.88;99831.91;5077877;28;45378;-79
2023/09/18 07:30:54;;;;;;;;;2.00;1.33;;;;;23.72;48.47;99863.16;5077259;28;45497;-77
2023/09/18 07:33:20;;;;;;;;;1.00;1.00;;;;;23.98;47.99;99874.72;5077157;28;45300;-77
2023/09/18 07:35:51;;;;;;;;;4.33;2.00;;;;;26.10;44.14;99863.59;5077562;28;45418;-77
2023/09/18 07:38:19;;;;;;;;;1.67;1.00;;;;;28.80;39.76;99871.53;5077757;28;45353;-78
2023/09/18 07:40:46;;;;;;;;;2.00;2.00;;;;;30.17;37.28;99853.56;5093312;27;45583;-77
2023/09/18 07:43:12;;;;;;;;;2.00;2.00;;;;;31.53;35.32;99878.06;5077279;28;46096;-78
2023/09/18 07:45:40;;;;;;;;;1.67;1.00;;;;;31.82;34.59;99864.41;5059148;28;45790;-78
2023/09/18 07:48:09;;;;;;;;;1.00;1.00;;;;;31.27;34.79;99877.09;5059013;28;45495;-78
2023/09/18 07:50:35;;;;;;;;;1.00;1.00;;;;;30.26;36.54;99892.53;5077405;28;45255;-80
2023/09/18 07:53:01;;;;;;;;;1.00;1.00;;;;;29.21;37.61;99889.81;5059204;28;47915;-78
2023/09/18 07:55:29;;;;;;;;;1.67;1.67;;;;;28.48;38.95;99898.34;5092870;27;45362;-78
2023/09/18 07:57:54;;;;;;;;;2.33;2.33;;;;;28.04;39.46;99888.19;5093109;27;45504;-82
2023/09/18 08:00:22;;;;;;;;;3.67;3.67;;;;;27.85;39.83;99915.94;5059071;28;45493;-84
2023/09/18 08:02:49;;;;;;;;;2.00;1.33;;;;;27.50;40.65;99904.34;5077154;28;45694;-79
2023/09/18 08:05:16;;;;;;;;;2.00;2.00;;;;;27.18;41.26;99912.13;5076850;28;45327;-80
2023/09/18 08:07:42;;;;;;;;;2.00;1.00;;;;;26.92;42.04;99924.13;5077241;28;45443;-80
2023/09/18 08:10:08;;;;;;;;;2.00;1.00;;;;;26.78;42.39;99939.03;5077284;28;45499;-82
2023/09/18 08:12:35;;;;;;;;;1.00;1.00;;;;;26.56;42.92;99951.63;5077300;28;45510;-80
2023/09/18 08:15:02;;;;;;;;;1.33;1.33;;;;;26.57;43.19;99951.56;5077077;28;45226;-80
2023/09/18 08:17:28;;;;;;;;;1.00;1.00;;;;;28.75;39.71;99941.69;5077356;28;45332;-80
2023/09/18 08:19:54;;;;;;;;;2.33;1.33;;;;;30.63;36.75;99945.03;5077274;28;45291;-80
2023/09/18 08:22:21;;;;;;;;;1.00;1.00;;;;;32.16;33.87;99935.88;5058195;28;46451;-81
2023/09/18 08:24:52;;;;;;;;;3.67;3.00;;;;;33.15;32.20;99937.88;5076762;28;45219;-81
2023/09/18 08:27:19;;;;;;;;;2.00;2.00;;;;;34.07;31.48;99928.19;5058896;28;45509;-80
2023/09/18 08:29:46;;;;;;;;;1.33;0.67;;;;;34.93;30.11;99920.50;5058795;28;45322;-80
2023/09/18 08:32:11;;;;;;;;;1.00;1.00;;;;;35.71;28.83;99932.16;5093258;27;46810;-81
2023/09/18 08:34:37;;;;;;;;;0.00;0.00;;;;;36.43;27.89;99923.22;5078646;28;45241;-78
2023/09/18 08:37:03;;;;;;;;;1.33;1.00;;;;;37.08;27.03;99930.19;5058300;28;45193;-84
2023/09/18 08:39:31;;;;;;;;;0.00;0.00;;;;;37.25;26.76;99907.75;5092371;27;45658;-77
2023/09/18 08:42:01;;;;;;;;;1.00;0.33;;;;;37.00;26.93;99929.03;5076282;28;45981;-78
2023/09/18 08:44:27;;;;;;;;;0.00;0.00;;;;;37.36;27.29;99928.53;5079126;28;45216;-76
2023/09/18 08:46:55;;;;;;;;;0.00;0.00;;;;;37.45;25.48;99916.81;5080191;28;45256;-78
2023/09/18 08:49:23;;;;;;;;;0.00;0.00;;;;;37.25;26.79;99905.03;5080255;28;45406;-80
2023/09/18 08:51:50;;;;;;;;;0.00;0.00;;;;;37.17;26.80;99918.50;5079720;28;45245;-79
2023/09/18 08:54:16;;;;;;;;;1.00;0.00;;;;;37.22;25.74;99927.09;5080095;28;45453;-80
2023/09/18 08:56:42;;;;;;;;;1.00;0.67;;;;;37.42;26.27;99920.69;5061768;28;45492;-79
2023/09/18 08:59:09;;;;;;;;;1.00;1.00;;;;;37.79;26.25;99919.13;5080435;28;45535;-80
2023/09/18 09:01:35;;;;;;;;;0.33;0.33;;;;;37.76;26.16;99911.22;5082225;28;45386;-80
2023/09/18 09:04:01;;;;;;;;;3.00;1.00;;;;;38.42;25.62;99924.03;5083572;28;45319;-81
2023/09/18 09:06:28;;;;;;;;;2.67;0.67;;;;;38.50;24.85;99920.53;5060952;28;45437;-81
2023/09/18 09:08:53;;;;;;;;;0.33;0.33;;;;;37.99;25.18;99904.44;5079738;28;45493;-78
2023/09/18 09:11:19;;;;;;;;;1.00;1.00;;;;;38.15;25.51;99952.94;5079208;28;45414;-78
2023/09/18 09:13:45;;;;;;;;;3.00;3.00;;;;;38.83;24.84;99962.81;5079248;28;45284;-80
2023/09/18 09:16:12;;;;;;;;;1.00;0.67;;;;;38.56;24.78;99978.16;5060820;28;45295;-77
2023/09/18 09:18:49;;;;;;;;;0.00;0.00;;;;;38.86;25.25;99992.56;5095439;27;45668;-78
2023/09/18 09:21:16;;;;;;;;;0.00;0.00;;;;;38.37;24.85;99989.09;5094950;27;45366;-78
2023/09/18 09:23:52;;;;;;;;;1.00;0.67;;;;;38.54;25.23;100006.59;5079039;28;45483;-77
2023/09/18 09:26:20;;;;;;;;;1.00;1.00;;;;;38.67;24.50;100003.53;5079299;28;45335;-77
2023/09/18 09:28:48;;;;;;;;;0.67;0.00;;;;;38.45;23.95;99961.06;5079269;28;45339;-79
2023/09/18 09:31:25;;;;;;;;;0.33;0.00;;;;;38.09;24.91;100002.63;5079278;28;46492;-77
2023/09/18 09:33:55;;;;;;;;;1.00;1.00;;;;;38.17;24.92;100016.41;5078841;28;45268;-78
2023/09/18 09:36:22;;;;;;;;;0.00;0.00;;;;;37.47;24.49;100018.31;5079299;28;45313;-78
2023/09/18 09:38:49;;;;;;;;;0.00;0.00;;;;;37.32;24.71;100017.00;5079371;28;45521;-78
2023/09/18 09:41:15;;;;;;;;;0.00;0.00;;;;;37.27;25.41;100031.03;5094425;27;46489;-78
2023/09/18 09:43:43;;;;;;;;;0.00;0.00;;;;;37.24;24.96;100033.19;5079255;28;45263;-78
2023/09/18 09:46:18;;;;;;;;;0.00;0.00;;;;;37.16;25.48;100042.88;5079101;28;45304;-78
2023/09/18 09:49:04;;;;;;;;;0.00;0.00;;;;;36.90;25.65;100020.69;5094826;27;45536;-77
2023/09/18 09:51:31;;;;;;;;;0.00;0.00;;;;;37.03;25.40;100043.09;5078863;28;46179;-81
2023/09/18 09:53:58;;;;;;;;;0.00;0.00;;;;;36.67;26.00;100052.69;5078126;28;45273;-82
2023/09/18 09:56:50;;;;;;;;;0.00;0.00;;;;;36.97;25.33;100070.03;5078920;28;45461;-79
2023/09/18 09:59:18;;;;;;;;;0.00;0.00;;;;;36.78;26.21;100032.66;5079031;28;45398;-82
2023/09/18 10:01:50;;;;;;;;;0.00;0.00;;;;;36.96;25.93;100068.28;5078421;28;45450;-77
2023/09/18 10:04:17;;;;;;;;;0.00;0.00;;;;;36.67;25.89;100063.56;5059804;28;45284;-77
2023/09/18 10:06:47;;;;;;;;;0.00;0.00;;;;;36.59;25.70;100085.06;5078900;28;45418;-78
2023/09/18 10:09:15;;;;;;;;;0.00;0.00;;;;;36.39;25.82;100052.31;5061003;28;45359;-82
2023/09/18 10:11:45;;;;;;;;;0.00;0.00;;;;;36.12;26.61;100068.25;5078760;28;46345;-83
2023/09/18 10:14:19;;;;;;;;;0.67;0.00;;;;;36.00;27.20;100067.44;5078952;28;45469;-84
2023/09/18 10:16:54;;;;;;;;;0.00;0.00;;;;;36.17;26.67;100074.19;5078521;28;45564;-80
2023/09/18 10:19:28;;;;;;;;;0.00;0.00;;;;;35.60;27.04;100074.31;5061130;28;45335;-83
2023/09/18 10:22:00;;;;;;;;;0.00;0.00;;;;;35.29;27.34;100073.25;5078423;28;45489;-84
2023/09/18 10:24:32;;;;;;;;;0.00;0.00;;;;;35.14;27.37;100078.03;5078596;28;45383;-77
2023/09/18 10:27:04;;;;;;;;;0.00;0.00;;;;;35.35;27.55;100082.75;5093872;27;45298;-78
2023/09/18 10:29:32;;;;;;;;;0.00;0.00;;;;;35.25;27.59;100096.19;5060499;28;45506;-77
2023/09/18 10:31:58;;;;;;;;;0.33;0.00;;;;;34.85;28.10;100058.66;5078087;28;45480;-78
2023/09/18 10:34:25;;;;;;;;;2.00;2.00;;;;;34.88;28.50;100093.69;5077543;28;45478;-76
2023/09/18 10:36:53;;;;;;;;;0.00;0.00;;;;;34.84;28.20;100100.34;5060028;28;45261;-83
2023/09/18 10:39:23;;;;;;;;;1.00;1.00;;;;;34.57;28.44;100097.91;5078481;28;45470;-76
2023/09/18 10:41:52;;;;;;;;;0.00;0.00;;;;;33.87;29.32;100115.81;5093646;27;47843;-77
2023/09/18 10:44:18;;;;;;;;;0.00;0.00;;;;;33.60;29.68;100124.97;5059828;28;45334;-85
2023/09/18 10:46:45;;;;;;;;;0.00;0.00;;;;;33.51;29.54;100124.78;5078062;28;45581;-77
2023/09/18 10:49:11;;;;;;;;;0.00;0.00;;;;;33.32;30.23;100104.44;5059941;28;45539;-79
2023/09/18 10:51:42;;;;;;;;;1.00;0.67;;;;;33.35;30.34;100125.03;5077853;28;46115;-77
2023/09/18 10:54:10;;;;;;;;;0.00;0.00;;;;;33.07;29.39;100119.72;5076844;28;45522;-81
2023/09/18 10:56:36;;;;;;;;;0.00;0.00;;;;;32.99;30.30;100124.81;5077619;28;45462;-83
2023/09/18 10:59:05;;;;;;;;;0.33;0.33;;;;;32.99;30.55;100130.22;5078283;28;45315;-84
2023/09/18 11:01:36;;;;;;;;;0.00;0.00;;;;;33.01;30.54;100128.25;5077172;28;45458;-83
2023/09/18 11:04:04;;;;;;;;;0.00;0.00;;;;;32.79;30.15;100131.63;5078714;28;45438;-83
2023/09/18 11:06:29;;;;;;;;;2.00;1.67;;;;;32.82;30.67;100127.81;5077251;28;45209;-84
2023/09/18 11:09:06;;;;;;;;;0.67;0.00;;;;;32.84;30.93;100125.88;5059800;28;45244;-83
2023/09/18 11:11:35;;;;;;;;;0.00;0.00;;;;;32.64;30.52;100124.56;5093693;27;45717;-77
2023/09/18 11:14:01;;;;;;;;;0.33;0.33;;;;;32.60;30.79;100123.91;5077904;28;45619;-77
2023/09/18 11:16:27;;;;;;;;;0.67;0.67;;;;;32.70;30.93;100143.06;5094222;27;45487;-76
2023/09/18 11:18:54;;;;;;;;;0.67;0.00;;;;;32.50;31.66;100123.63;5081973;28;45477;-78
2023/09/18 11:21:40;;;;;;;;;0.33;0.00;;;;;32.52;31.90;100155.97;5094595;27;45264;-76
2023/09/18 11:24:17;;;;;;;;;0.00;0.00;;;;;32.07;32.09;100126.53;5077645;28;45304;-77
2023/09/18 11:26:44;;;;;;;;;1.00;0.00;;;;;32.14;31.96;100175.63;5077757;28;45423;-78
2023/09/18 11:29:13;;;;;;;;;0.00;0.00;;;;;31.98;32.70;100188.38;5077862;28;45568;-78
2023/09/18 11:31:47;;;;;;;;;1.00;1.00;;;;;31.69;32.66;100188.41;5077490;28;45390;-77